sensor_id;sensor_type;location;lat;lon;timestamp;pressure;altitude;pressure_sealevel;temperature;humidity
14232;BME280;7200;52.194;9.900;2024-03-08T00:00:13;100905.13;;;1.50;100.00
14232;BME280;7200;52.194;9.900;2024-03-08T00:02:39;100906.03;;;1.52;100.00
14232;BME280;7200;52.194;9.900;2024-03-08T00:05:06;100909.50;;;1.51;100.00
14232;BME280;7200;52.194;9.900;2024-03-08T00:07:31;100905.13;;;1.50;100.00
14232;BME280;7200;52.194;9.900;2024-03-08T00:09:57;100907.78;;;1.53;100.00
14232;BME280;7200;52.194;9.900;2024-03-08T00:12:23;100911.28;;;1.57;100.00
14232;BME280;7200;52.194;9.900;2024-03-08T00:14:48;100908.63;;;1.49;100.00
14232;BME280;7200;52.194;9.900;2024-03-08T00:17:14;100898.16;;;1.42;100.00
14232;BME280;7200;52.194;9.900;2024-03-08T00:19:40;100912.84;;;1.36;100.00
14232;BME280;7200;52.194;9.900;2024-03-08T00:22:06;100903.22;;;1.29;100.00
14232;BME280;7200;52.194;9.900;2024-03-08T00:24:33;100905.94;;;1.42;100.00
14232;BME280;7200;52.194;9.900;2024-03-08T00:26:58;100908.56;;;1.42;100.00
14232;BME280;7200;52.194;9.900;2024-03-08T00:29:24;100908.50;;;1.37;100.00
14232;BME280;7200;52.194;9.900;2024-03-08T00:31:49;100900.66;;;1.32;100.00
14232;BME280;7200;52.194;9.900;2024-03-08T00:34:15;100903.22;;;1.25;100.00
14232;BME280;7200;52.194;9.900;2024-03-08T00:36:41;100901.41;;;1.17;100.00
14232;BME280;7200;52.194;9.900;2024-03-08T00:39:06;100905.72;;;1.15;100.00
14232;BME280;7200;52.194;9.900;2024-03-08T00:41:32;100896.25;;;1.21;100.00
14232;BME280;7200;52.194;9.900;2024-03-08T00:43:58;100899.63;;;1.13;100.00
14232;BME280;7200;52.194;9.900;2024-03-08T00:46:23;100896.19;;;1.16;100.00
14232;BME280;7200;52.194;9.900;2024-03-08T00:48:48;100896.19;;;1.16;100.00
14232;BME280;7200;52.194;9.900;2024-03-08T00:51:14;100893.50;;;1.08;100.00
14232;BME280;7200;52.194;9.900;2024-03-08T00:53:41;100895.25;;;1.08;100.00
14232;BME280;7200;52.194;9.900;2024-03-08T00:56:07;100877.03;;;1.06;100.00
14232;BME280;7200;52.194;9.900;2024-03-08T00:58:36;100877.94;;;1.13;100.00
14232;BME280;7200;52.194;9.900;2024-03-08T01:01:02;100876.22;;;1.12;100.00
14232;BME280;7200;52.194;9.900;2024-03-08T01:03:27;100871.88;;;1.08;100.00
14232;BME280;7200;52.194;9.900;2024-03-08T01:05:53;100872.59;;;0.96;100.00
14232;BME280;7200;52.194;9.900;2024-03-08T01:08:19;100866.47;;;0.89;100.00
14232;BME280;7200;52.194;9.900;2024-03-08T01:10:44;100863.06;;;0.93;100.00
14232;BME280;7200;52.194;9.900;2024-03-08T01:13:10;100865.59;;;0.90;100.00
14232;BME280;7200;52.194;9.900;2024-03-08T01:15:35;100865.63;;;0.92;100.00
14232;BME280;7200;52.194;9.900;2024-03-08T01:18:00;100862.16;;;0.90;100.00
14232;BME280;7200;52.194;9.900;2024-03-08T01:20:26;100849.00;;;0.73;100.00
14232;BME280;7200;52.194;9.900;2024-03-08T01:22:52;100854.03;;;0.59;100.00
14232;BME280;7200;52.194;9.900;2024-03-08T01:25:18;100848.63;;;0.41;100.00
14232;BME280;7200;52.194;9.900;2024-03-08T01:27:43;100842.38;;;0.23;100.00
14232;BME280;7200;52.194;9.900;2024-03-08T01:30:09;100847.31;;;0.03;100.00
14232;BME280;7200;52.194;9.900;2024-03-08T01:32:35;100843.00;;;0.05;100.00
14232;BME280;7200;52.194;9.900;2024-03-08T01:35:00;100841.28;;;0.07;100.00
14232;BME280;7200;52.194;9.900;2024-03-08T01:37:26;100846.69;;;0.21;100.00
14232;BME280;7200;52.194;9.900;2024-03-08T01:39:51;100841.63;;;0.33;100.00
14232;BME280;7200;52.194;9.900;2024-03-08T01:42:17;100835.56;;;0.33;100.00
14232;BME280;7200;52.194;9.900;2024-03-08T01:44:43;100832.19;;;0.38;100.00
14232;BME280;7200;52.194;9.900;2024-03-08T01:47:10;100829.63;;;0.43;100.00
14232;BME280;7200;52.194;9.900;2024-03-08T01:49:36;100828.03;;;0.53;100.00
14232;BME280;7200;52.194;9.900;2024-03-08T01:52:02;100829.78;;;0.55;100.00
14232;BME280;7200;52.194;9.900;2024-03-08T01:54:29;100824.44;;;0.45;100.00
14232;BME280;7200;52.194;9.900;2024-03-08T01:56:56;100818.34;;;0.41;100.00
14232;BME280;7200;52.194;9.900;2024-03-08T01:59:22;100823.47;;;0.33;100.00
14232;BME280;7200;52.194;9.900;2024-03-08T02:01:48;100812.94;;;0.19;100.00
14232;BME280;7200;52.194;9.900;2024-03-08T02:04:14;100812.41;;;0.50;100.00
14232;BME280;7200;52.194;9.900;2024-03-08T02:06:39;100809.78;;;0.48;100.00
14232;BME280;7200;52.194;9.900;2024-03-08T02:09:05;100799.53;;;0.59;100.00
14232;BME280;7200;52.194;9.900;2024-03-08T02:11:32;100798.66;;;0.62;100.00
14232;BME280;7200;52.194;9.900;2024-03-08T02:13:57;100792.56;;;0.55;100.00
14232;BME280;7200;52.194;9.900;2024-03-08T02:16:23;100792.56;;;0.55;100.00
14232;BME280;7200;52.194;9.900;2024-03-08T02:18:48;100795.13;;;0.52;100.00
14232;BME280;7200;52.194;9.900;2024-03-08T02:21:17;100788.97;;;0.42;100.00
14232;BME280;7200;52.194;9.900;2024-03-08T02:23:43;100788.88;;;0.34;100.00
14232;BME280;7200;52.194;9.900;2024-03-08T02:26:09;100788.84;;;0.33;100.00
14232;BME280;7200;52.194;9.900;2024-03-08T02:28:34;100778.56;;;0.41;100.00
14232;BME280;7200;52.194;9.900;2024-03-08T02:31:00;100776.09;;;0.54;100.00
14232;BME280;7200;52.194;9.900;2024-03-08T02:33:26;100776.00;;;0.47;100.00
14232;BME280;7200;52.194;9.900;2024-03-08T02:35:52;100772.69;;;0.62;100.00
14232;BME280;7200;52.194;9.900;2024-03-08T02:38:19;100771.13;;;0.76;100.00
14232;BME280;7200;52.194;9.900;2024-03-08T02:40:45;100776.94;;;0.52;100.00
14232;BME280;7200;52.194;9.900;2024-03-08T02:43:11;100784.53;;;0.33;100.00
14232;BME280;7200;52.194;9.900;2024-03-08T02:45:37;100780.13;;;0.26;100.00
14232;BME280;7200;52.194;9.900;2024-03-08T02:48:04;100776.63;;;0.21;100.00
14232;BME280;7200;52.194;9.900;2024-03-08T02:50:29;100772.34;;;0.25;100.00
14232;BME280;7200;52.194;9.900;2024-03-08T02:52:54;100773.16;;;0.22;100.00
14232;BME280;7200;52.194;9.900;2024-03-08T02:55:20;100766.97;;;0.11;100.00
14232;BME280;7200;52.194;9.900;2024-03-08T02:57:46;100766.88;;;0.02;100.00
14232;BME280;7200;52.194;9.900;2024-03-08T03:00:13;100766.00;;;0.01;100.00
14232;BME280;7200;52.194;9.900;2024-03-08T03:02:38;100759.88;;;-0.06;100.00
14232;BME280;7200;52.194;9.900;2024-03-08T03:05:05;100754.63;;;-0.10;100.00
14232;BME280;7200;52.194;9.900;2024-03-08T03:07:34;100754.50;;;-0.23;100.00
14232;BME280;7200;52.194;9.900;2024-03-08T03:10:00;100754.63;;;-0.10;100.00
14232;BME280;7200;52.194;9.900;2024-03-08T03:12:30;100746.97;;;0.01;100.00
14232;BME280;7200;52.194;9.900;2024-03-08T03:14:56;100740.78;;;-0.11;100.00
14232;BME280;7200;52.194;9.900;2024-03-08T03:17:24;100736.41;;;-0.13;100.00
14232;BME280;7200;52.194;9.900;2024-03-08T03:19:50;100739.81;;;-0.19;100.00
14232;BME280;7200;52.194;9.900;2024-03-08T03:22:17;100734.63;;;-0.19;100.00
14232;BME280;7200;52.194;9.900;2024-03-08T03:24:43;100740.66;;;-0.22;100.00
14232;BME280;7200;52.194;9.900;2024-03-08T03:27:08;100733.84;;;-0.15;100.00
14232;BME280;7200;52.194;9.900;2024-03-08T03:29:40;100740.09;;;0.03;100.00
14232;BME280;7200;52.194;9.900;2024-03-08T03:32:08;100731.59;;;0.16;100.00
14232;BME280;7200;52.194;9.900;2024-03-08T03:34:33;100730.69;;;0.12;100.00
14232;BME280;7200;52.194;9.900;2024-03-08T03:37:02;100734.13;;;0.10;100.00
14232;BME280;7200;52.194;9.900;2024-03-08T03:39:28;100728.03;;;0.09;100.00
14232;BME280;7200;52.194;9.900;2024-03-08T03:41:57;100732.44;;;0.13;100.00
14232;BME280;7200;52.194;9.900;2024-03-08T03:44:22;100731.53;;;0.10;100.00
14232;BME280;7200;52.194;9.900;2024-03-08T03:46:49;100739.16;;;-0.03;100.00
14232;BME280;7200;52.194;9.900;2024-03-08T03:49:16;100734.75;;;-0.08;100.00
14232;BME280;7200;52.194;9.900;2024-03-08T03:51:42;100730.44;;;-0.09;100.00
14232;BME280;7200;52.194;9.900;2024-03-08T03:54:07;100731.41;;;-0.01;100.00
14232;BME280;7200;52.194;9.900;2024-03-08T03:56:32;100727.22;;;0.12;100.00
14232;BME280;7200;52.194;9.900;2024-03-08T03:58:58;100728.00;;;0.05;100.00
14232;BME280;7200;52.194;9.900;2024-03-08T04:01:23;100735.66;;;-0.06;100.00
14232;BME280;7200;52.194;9.900;2024-03-08T04:03:49;100733.91;;;-0.09;100.00
14232;BME280;7200;52.194;9.900;2024-03-08T04:06:14;100738.22;;;-0.08;100.00
14232;BME280;7200;52.194;9.900;2024-03-08T04:08:40;100741.59;;;-0.16;100.00
14232;BME280;7200;52.194;9.900;2024-03-08T04:11:06;100738.09;;;-0.20;100.00
14232;BME280;7200;52.194;9.900;2024-03-08T04:13:33;100734.63;;;-0.21;100.00
14232;BME280;7200;52.194;9.900;2024-03-08T04:15:59;100739.03;;;-0.12;100.00
14232;BME280;7200;52.194;9.900;2024-03-08T04:18:25;100739.00;;;-0.13;100.00
14232;BME280;7200;52.194;9.900;2024-03-08T04:20:50;100739.94;;;-0.10;100.00
14232;BME280;7200;52.194;9.900;2024-03-08T04:23:15;100739.97;;;-0.07;100.00
14232;BME280;7200;52.194;9.900;2024-03-08T04:25:43;100737.31;;;-0.13;100.00
14232;BME280;7200;52.194;9.900;2024-03-08T04:28:08;100729.50;;;-0.16;100.00
14232;BME280;7200;52.194;9.900;2024-03-08T04:30:39;100726.78;;;-0.25;100.00
14232;BME280;7200;52.194;9.900;2024-03-08T04:33:05;100724.22;;;-0.24;100.00
14232;BME280;7200;52.194;9.900;2024-03-08T04:35:32;100733.75;;;-0.20;100.00
14232;BME280;7200;52.194;9.900;2024-03-08T04:37:57;100721.59;;;-0.25;100.00
14232;BME280;7200;52.194;9.900;2024-03-08T04:40:23;100727.56;;;-0.34;100.00
14232;BME280;7200;52.194;9.900;2024-03-08T04:42:48;100721.44;;;-0.39;100.00
14232;BME280;7200;52.194;9.900;2024-03-08T04:45:16;100717.94;;;-0.43;100.00
14232;BME280;7200;52.194;9.900;2024-03-08T04:47:41;100723.03;;;-0.47;100.00
14232;BME280;7200;52.194;9.900;2024-03-08T04:50:07;100725.69;;;-0.44;100.00
14232;BME280;7200;52.194;9.900;2024-03-08T04:52:34;100717.72;;;-0.58;100.00
14232;BME280;7200;52.194;9.900;2024-03-08T04:54:59;100718.50;;;-0.64;100.00
14232;BME280;7200;52.194;9.900;2024-03-08T04:57:24;100716.97;;;-0.51;100.00
14232;BME280;7200;52.194;9.900;2024-03-08T04:59:50;100721.59;;;-0.25;100.00
14232;BME280;7200;52.194;9.900;2024-03-08T05:02:16;100712.88;;;-0.30;100.00
14232;BME280;7200;52.194;9.900;2024-03-08T05:04:42;100718.28;;;-0.13;100.00
14232;BME280;7200;52.194;9.900;2024-03-08T05:07:08;100717.22;;;-0.29;100.00
14232;BME280;7200;52.194;9.900;2024-03-08T05:09:33;100717.28;;;-0.23;100.00
14232;BME280;7200;52.194;9.900;2024-03-08T05:11:59;100713.03;;;-0.18;100.00
14232;BME280;7200;52.194;9.900;2024-03-08T05:14:24;100718.28;;;-0.13;100.00
14232;BME280;7200;52.194;9.900;2024-03-08T05:16:50;100715.53;;;-0.26;100.00
14232;BME280;7200;52.194;9.900;2024-03-08T05:19:20;100719.06;;;-0.21;100.00
14232;BME280;7200;52.194;9.900;2024-03-08T05:21:49;100723.47;;;-0.15;100.00
14232;BME280;7200;52.194;9.900;2024-03-08T05:24:15;100717.19;;;-0.31;100.00
14232;BME280;7200;52.194;9.900;2024-03-08T05:26:41;100720.72;;;-0.26;100.00
14232;BME280;7200;52.194;9.900;2024-03-08T05:29:07;100726.06;;;-0.15;100.00
14232;BME280;7200;52.194;9.900;2024-03-08T05:31:54;100731.19;;;-0.18;100.00
14232;BME280;7200;52.194;9.900;2024-03-08T05:34:20;100731.13;;;-0.24;100.00
14232;BME280;7200;52.194;9.900;2024-03-08T05:36:47;100730.34;;;-0.18;100.00
14232;BME280;7200;52.194;9.900;2024-03-08T05:39:15;100723.38;;;-0.23;100.00
14232;BME280;7200;52.194;9.900;2024-03-08T05:41:40;100725.88;;;-0.27;100.00
14232;BME280;7200;52.194;9.900;2024-03-08T05:44:06;100719.00;;;-0.25;100.00
14232;BME280;7200;52.194;9.900;2024-03-08T05:46:32;100718.16;;;-0.24;100.00
14232;BME280;7200;52.194;9.900;2024-03-08T05:48:57;100719.78;;;-0.32;100.00
14232;BME280;7200;52.194;9.900;2024-03-08T05:51:24;100724.16;;;-0.30;100.00
14232;BME280;7200;52.194;9.900;2024-03-08T05:53:51;100720.78;;;-0.20;100.00
14232;BME280;7200;52.194;9.900;2024-03-08T05:56:18;100725.88;;;-0.29;100.00
14232;BME280;7200;52.194;9.900;2024-03-08T05:58:44;100724.31;;;-0.14;100.00
14232;BME280;7200;52.194;9.900;2024-03-08T06:01:09;100728.56;;;-0.20;100.00
14232;BME280;7200;52.194;9.900;2024-03-08T06:03:38;100728.41;;;-0.33;100.00
14232;BME280;7200;52.194;9.900;2024-03-08T06:06:09;100730.25;;;-0.23;100.00
14232;BME280;7200;52.194;9.900;2024-03-08T06:08:34;100722.44;;;-0.28;100.00
14232;BME280;7200;52.194;9.900;2024-03-08T06:11:00;100729.38;;;-0.25;100.00
14232;BME280;7200;52.194;9.900;2024-03-08T06:13:27;100724.13;;;-0.31;100.00
14232;BME280;7200;52.194;9.900;2024-03-08T06:15:52;100724.16;;;-0.27;100.00
14232;BME280;7200;52.194;9.900;2024-03-08T06:18:18;100724.31;;;-0.14;100.00
14232;BME280;7200;52.194;9.900;2024-03-08T06:20:43;100724.25;;;-0.21;100.00
14232;BME280;7200;52.194;9.900;2024-03-08T06:23:09;100725.16;;;-0.18;100.00
14232;BME280;7200;52.194;9.900;2024-03-08T06:25:34;100727.84;;;-0.08;100.00
14232;BME280;7200;52.194;9.900;2024-03-08T06:28:00;100724.38;;;-0.10;100.00
14232;BME280;7200;52.194;9.900;2024-03-08T06:30:25;100724.38;;;-0.10;100.00
14232;BME280;7200;52.194;9.900;2024-03-08T06:32:51;100721.72;;;-0.16;100.00
14232;BME280;7200;52.194;9.900;2024-03-08T06:35:16;100723.56;;;-0.04;100.00
14232;BME280;7200;52.194;9.900;2024-03-08T06:37:42;100717.44;;;-0.12;100.00
14232;BME280;7200;52.194;9.900;2024-03-08T06:40:09;100710.53;;;-0.10;100.00
14232;BME280;7200;52.194;9.900;2024-03-08T06:42:39;100715.69;;;-0.12;100.00
14232;BME280;7200;52.194;9.900;2024-03-08T06:45:05;100706.19;;;-0.13;100.00
14232;BME280;7200;52.194;9.900;2024-03-08T06:47:31;100702.81;;;-0.04;100.00
14232;BME280;7200;52.194;9.900;2024-03-08T06:49:57;100708.78;;;-0.13;100.00
14232;BME280;7200;52.194;9.900;2024-03-08T06:52:22;100707.16;;;-0.05;100.00
14232;BME280;7200;52.194;9.900;2024-03-08T06:54:48;100709.78;;;-0.02;100.00
14232;BME280;7200;52.194;9.900;2024-03-08T06:57:14;100714.16;;;0.03;100.00
14232;BME280;7200;52.194;9.900;2024-03-08T06:59:39;100712.47;;;0.06;100.00
14232;BME280;7200;52.194;9.900;2024-03-08T07:02:05;100709.88;;;0.08;100.00
14232;BME280;7200;52.194;9.900;2024-03-08T07:04:34;100710.88;;;0.19;100.00
14232;BME280;7200;52.194;9.900;2024-03-08T07:07:03;100712.63;;;0.23;100.00
14232;BME280;7200;52.194;9.900;2024-03-08T07:09:28;100711.78;;;0.26;100.00
14232;BME280;7200;52.194;9.900;2024-03-08T07:11:54;100709.25;;;0.32;100.00
14232;BME280;7200;52.194;9.900;2024-03-08T07:14:22;100711.84;;;0.30;100.00
14232;BME280;7200;52.194;9.900;2024-03-08T07:16:48;100704.22;;;0.49;100.00
14232;BME280;7200;52.194;9.900;2024-03-08T07:19:14;100712.91;;;0.54;100.00
14232;BME280;7200;52.194;9.900;2024-03-08T07:21:40;100712.94;;;0.55;100.00
14232;BME280;7200;52.194;9.900;2024-03-08T07:24:07;100719.06;;;0.61;100.00
14232;BME280;7200;52.194;9.900;2024-03-08T07:26:53;100714.75;;;0.64;100.00
14232;BME280;7200;52.194;9.900;2024-03-08T07:29:18;100706.97;;;0.67;100.00
14232;BME280;7200;52.194;9.900;2024-03-08T07:31:43;100697.50;;;0.71;100.00
14232;BME280;7200;52.194;9.900;2024-03-08T07:34:35;100709.69;;;0.83;100.00
14232;BME280;7200;52.194;9.900;2024-03-08T07:37:00;100702.72;;;0.77;100.00
14232;BME280;7200;52.194;9.900;2024-03-08T07:39:25;100695.91;;;0.87;100.00
14232;BME280;7200;52.194;9.900;2024-03-08T07:41:51;100693.31;;;0.90;100.00
14232;BME280;7200;52.194;9.900;2024-03-08T07:44:20;100693.31;;;0.90;100.00
14232;BME280;7200;52.194;9.900;2024-03-08T07:46:45;100694.22;;;1.00;100.00
14232;BME280;7200;52.194;9.900;2024-03-08T07:49:10;100699.44;;;1.01;100.00
14232;BME280;7200;52.194;9.900;2024-03-08T07:51:37;100700.38;;;1.08;100.00
14232;BME280;7200;52.194;9.900;2024-03-08T07:54:03;100696.09;;;1.17;100.00
14232;BME280;7200;52.194;9.900;2024-03-08T07:56:29;100699.59;;;1.24;100.00
14232;BME280;7200;52.194;9.900;2024-03-08T07:58:55;100695.25;;;1.23;100.00
14232;BME280;7200;52.194;9.900;2024-03-08T08:01:21;100697.91;;;1.32;100.00
14232;BME280;7200;52.194;9.900;2024-03-08T08:03:46;100689.19;;;1.26;100.00
14232;BME280;7200;52.194;9.900;2024-03-08T08:06:15;100695.34;;;1.34;100.00
14232;BME280;7200;52.194;9.900;2024-03-08T08:08:44;100686.72;;;1.44;100.00
14232;BME280;7200;52.194;9.900;2024-03-08T08:11:10;100691.91;;;1.46;100.00
14232;BME280;7200;52.194;9.900;2024-03-08T08:13:36;100690.16;;;1.45;100.00
14232;BME280;7200;52.194;9.900;2024-03-08T08:16:03;100690.22;;;1.54;100.00
14232;BME280;7200;52.194;9.900;2024-03-08T08:18:29;100683.31;;;1.61;100.00
14232;BME280;7200;52.194;9.900;2024-03-08T08:20:55;100683.31;;;1.65;100.00
14232;BME280;7200;52.194;9.900;2024-03-08T08:23:20;100681.63;;;1.77;100.00
14232;BME280;7200;52.194;9.900;2024-03-08T08:25:46;100674.75;;;1.85;100.00
14232;BME280;7200;52.194;9.900;2024-03-08T08:28:17;100678.19;;;1.88;100.00
14232;BME280;7200;52.194;9.900;2024-03-08T08:30:46;100680.81;;;1.90;100.00
14232;BME280;7200;52.194;9.900;2024-03-08T08:33:14;100670.41;;;1.91;100.00
14232;BME280;7200;52.194;9.900;2024-03-08T08:35:40;100673.91;;;1.95;100.00
14232;BME280;7200;52.194;9.900;2024-03-08T08:38:05;100671.31;;;2.04;100.00
14232;BME280;7200;52.194;9.900;2024-03-08T08:40:33;100672.19;;;2.14;100.00
14232;BME280;7200;52.194;9.900;2024-03-08T08:42:58;100673.09;;;2.19;100.00
14232;BME280;7200;52.194;9.900;2024-03-08T08:45:25;100670.47;;;2.24;100.00
14232;BME280;7200;52.194;9.900;2024-03-08T08:47:51;100660.06;;;2.39;100.00
14232;BME280;7200;52.194;9.900;2024-03-08T08:50:16;100666.19;;;2.55;100.00
14232;BME280;7200;52.194;9.900;2024-03-08T08:52:48;100658.34;;;2.70;100.00
14232;BME280;7200;52.194;9.900;2024-03-08T08:55:13;100657.47;;;2.84;100.00
14232;BME280;7200;52.194;9.900;2024-03-08T08:57:40;100645.31;;;2.89;100.00
14232;BME280;7200;52.194;9.900;2024-03-08T09:00:06;100653.97;;;2.97;100.00
14232;BME280;7200;52.194;9.900;2024-03-08T09:02:33;100644.41;;;3.05;100.00
14232;BME280;7200;52.194;9.900;2024-03-08T09:04:59;100635.72;;;3.11;100.00
14232;BME280;7200;52.194;9.900;2024-03-08T09:07:26;100641.78;;;3.21;100.00
14232;BME280;7200;52.194;9.900;2024-03-08T09:09:53;100636.50;;;3.35;100.00
14232;BME280;7200;52.194;9.900;2024-03-08T09:12:22;100638.25;;;3.34;100.00
14232;BME280;7200;52.194;9.900;2024-03-08T09:14:47;100625.19;;;3.40;100.00
14232;BME280;7200;52.194;9.900;2024-03-08T09:17:13;100625.16;;;3.48;100.00
14232;BME280;7200;52.194;9.900;2024-03-08T09:19:42;100613.00;;;3.47;100.00
14232;BME280;7200;52.194;9.900;2024-03-08T09:22:08;100616.47;;;3.50;100.00
14232;BME280;7200;52.194;9.900;2024-03-08T09:24:33;100612.91;;;3.64;100.00
14232;BME280;7200;52.194;9.900;2024-03-08T09:26:58;100602.44;;;3.67;100.00
14232;BME280;7200;52.194;9.900;2024-03-08T09:29:24;100591.94;;;3.75;100.00
14232;BME280;7200;52.194;9.900;2024-03-08T09:31:49;100594.56;;;3.78;100.00
14232;BME280;7200;52.194;9.900;2024-03-08T09:34:15;100580.59;;;3.83;100.00
14232;BME280;7200;52.194;9.900;2024-03-08T09:36:40;100584.91;;;3.89;100.00
14232;BME280;7200;52.194;9.900;2024-03-08T09:39:06;100579.66;;;3.94;100.00
14232;BME280;7200;52.194;9.900;2024-03-08T09:41:33;100578.72;;;4.02;100.00
14232;BME280;7200;52.194;9.900;2024-03-08T09:43:59;100563.91;;;4.06;100.00
14232;BME280;7200;52.194;9.900;2024-03-08T09:46:25;100545.59;;;4.12;100.00
14232;BME280;7200;52.194;9.900;2024-03-08T09:48:52;100548.13;;;4.21;100.00
14232;BME280;7200;52.194;9.900;2024-03-08T09:51:21;100546.19;;;4.43;100.00
14232;BME280;7200;52.194;9.900;2024-03-08T09:53:51;100536.53;;;4.52;100.00
14232;BME280;7200;52.194;9.900;2024-03-08T09:56:19;100529.59;;;4.47;100.00
14232;BME280;7200;52.194;9.900;2024-03-08T09:58:44;100524.28;;;4.55;100.00
14232;BME280;7200;52.194;9.900;2024-03-08T10:01:39;100512.16;;;4.49;100.00
14232;BME280;7200;52.194;9.900;2024-03-08T10:04:04;100513.84;;;4.54;100.00
14232;BME280;7200;52.194;9.900;2024-03-08T10:06:30;100511.28;;;4.51;100.00
14232;BME280;7200;52.194;9.900;2024-03-08T10:08:56;100506.91;;;4.54;100.00
14232;BME280;7200;52.194;9.900;2024-03-08T10:11:22;100501.69;;;4.53;100.00
14232;BME280;7200;52.194;9.900;2024-03-08T10:13:48;100506.78;;;4.65;100.00
14232;BME280;7200;52.194;9.900;2024-03-08T10:16:15;100498.03;;;4.67;100.00
14232;BME280;7200;52.194;9.900;2024-03-08T10:18:42;100497.94;;;4.77;100.00
14232;BME280;7200;52.194;9.900;2024-03-08T10:21:09;100485.78;;;4.73;100.00
14232;BME280;7200;52.194;9.900;2024-03-08T10:23:38;100487.38;;;4.86;100.00
14232;BME280;7200;52.194;9.900;2024-03-08T10:26:13;100484.69;;;4.92;100.00
14232;BME280;7200;52.194;9.900;2024-03-08T10:28:45;100481.00;;;5.09;100.00
14232;BME280;7200;52.194;9.900;2024-03-08T10:31:13;100494.75;;;5.21;100.00
14232;BME280;7200;52.194;9.900;2024-03-08T10:33:40;100486.69;;;5.38;100.00
14232;BME280;7200;52.194;9.900;2024-03-08T10:36:07;100492.84;;;5.34;100.00
14232;BME280;7200;52.194;9.900;2024-03-08T10:38:36;100486.78;;;5.32;100.00
14232;BME280;7200;52.194;9.900;2024-03-08T10:41:01;100485.72;;;5.45;100.00
14232;BME280;7200;52.194;9.900;2024-03-08T10:43:31;100486.59;;;5.44;100.00
14232;BME280;7200;52.194;9.900;2024-03-08T10:48:52;100473.44;;;5.51;100.00
14232;BME280;7200;52.194;9.900;2024-03-08T10:51:19;100483.81;;;5.54;100.00
14232;BME280;7200;52.194;9.900;2024-03-08T10:53:46;100486.50;;;5.51;100.00
14232;BME280;7200;52.194;9.900;2024-03-08T10:56:13;100477.59;;;5.64;100.00
14232;BME280;7200;52.194;9.900;2024-03-08T10:58:40;100473.91;;;5.76;100.00
14232;BME280;7200;52.194;9.900;2024-03-08T11:01:06;100472.03;;;5.84;100.00
14232;BME280;7200;52.194;9.900;2024-03-08T11:06:19;100472.63;;;6.03;100.00
14232;BME280;7200;52.194;9.900;2024-03-08T11:08:48;100470.06;;;5.98;100.00
14232;BME280;7200;52.194;9.900;2024-03-08T11:11:32;100456.84;;;6.06;100.00
14232;BME280;7200;52.194;9.900;2024-03-08T11:14:00;100445.50;;;6.07;100.00
14232;BME280;7200;52.194;9.900;2024-03-08T11:18:58;100442.72;;;6.15;100.00
14232;BME280;7200;52.194;9.900;2024-03-08T11:21:32;100438.00;;;6.34;100.00
14232;BME280;7200;52.194;9.900;2024-03-08T11:24:03;100423.16;;;6.34;100.00
14232;BME280;7200;52.194;9.900;2024-03-08T11:26:31;100423.06;;;6.40;100.00
14232;BME280;7200;52.194;9.900;2024-03-08T11:32:15;100411.28;;;6.60;100.00
14232;BME280;7200;52.194;9.900;2024-03-08T11:34:42;100420.16;;;6.53;100.00
14232;BME280;7200;52.194;9.900;2024-03-08T11:37:16;100412.94;;;6.66;100.00
14232;BME280;7200;52.194;9.900;2024-03-08T11:39:55;100402.75;;;6.50;100.00
14232;BME280;7200;52.194;9.900;2024-03-08T11:42:24;100395.31;;;6.29;100.00
14232;BME280;7200;52.194;9.900;2024-03-08T11:44:52;100405.38;;;6.50;100.00
14232;BME280;7200;52.194;9.900;2024-03-08T11:47:17;100388.50;;;6.63;100.00
14232;BME280;7200;52.194;9.900;2024-03-08T11:49:43;100388.78;;;6.50;100.00
14232;BME280;7200;52.194;9.900;2024-03-08T11:52:17;100389.13;;;6.76;100.00
14232;BME280;7200;52.194;9.900;2024-03-08T11:54:51;100388.69;;;6.95;100.00
14232;BME280;7200;52.194;9.900;2024-03-08T11:57:18;100379.31;;;6.85;100.00
14232;BME280;7200;52.194;9.900;2024-03-08T11:59:54;100371.56;;;6.80;100.00
14232;BME280;7200;52.194;9.900;2024-03-08T12:02:22;100358.69;;;6.69;100.00
14232;BME280;7200;52.194;9.900;2024-03-08T12:04:56;100361.97;;;6.77;100.00
14232;BME280;7200;52.194;9.900;2024-03-08T12:07:22;100356.09;;;6.68;100.00
14232;BME280;7200;52.194;9.900;2024-03-08T12:10:14;100355.66;;;6.88;100.00
14232;BME280;7200;52.194;9.900;2024-03-08T12:12:44;100351.41;;;6.82;100.00
14232;BME280;7200;52.194;9.900;2024-03-08T12:15:09;100357.19;;;6.96;100.00
14232;BME280;7200;52.194;9.900;2024-03-08T12:17:37;100348.28;;;7.04;100.00
14232;BME280;7200;52.194;9.900;2024-03-08T12:20:18;100337.56;;;7.13;100.00
14232;BME280;7200;52.194;9.900;2024-03-08T12:22:47;100340.25;;;7.10;100.00
14232;BME280;7200;52.194;9.900;2024-03-08T12:25:14;100331.47;;;7.12;100.00
14232;BME280;7200;52.194;9.900;2024-03-08T12:27:40;100329.16;;;6.98;100.00
14232;BME280;7200;52.194;9.900;2024-03-08T12:32:57;100314.34;;;6.97;100.00
14232;BME280;7200;52.194;9.900;2024-03-08T12:35:24;100321.28;;;6.98;100.00
14232;BME280;7200;52.194;9.900;2024-03-08T12:37:52;100308.34;;;6.91;100.00
14232;BME280;7200;52.194;9.900;2024-03-08T12:40:27;100313.41;;;6.98;100.00
14232;BME280;7200;52.194;9.900;2024-03-08T12:42:54;100308.75;;;7.11;100.00
14232;BME280;7200;52.194;9.900;2024-03-08T12:45:23;100314.50;;;7.27;100.00
14232;BME280;7200;52.194;9.900;2024-03-08T12:47:53;100307.44;;;6.93;100.00
14232;BME280;7200;52.194;9.900;2024-03-08T12:50:19;100314.84;;;7.12;100.00
14232;BME280;7200;52.194;9.900;2024-03-08T12:52:45;100302.66;;;7.11;100.00
14232;BME280;7200;52.194;9.900;2024-03-08T12:55:11;100305.03;;;7.21;100.00
14232;BME280;7200;52.194;9.900;2024-03-08T12:57:37;100307.31;;;7.34;100.00
14232;BME280;7200;52.194;9.900;2024-03-08T13:00:04;100303.75;;;7.36;100.00
14232;BME280;7200;52.194;9.900;2024-03-08T13:02:30;100309.13;;;7.32;100.00
14232;BME280;7200;52.194;9.900;2024-03-08T13:04:57;100285.72;;;7.22;100.00
14232;BME280;7200;52.194;9.900;2024-03-08T13:07:23;100291.03;;;7.19;100.00
14232;BME280;7200;52.194;9.900;2024-03-08T13:09:52;100293.31;;;7.35;100.00